createdAt,value
2023-03-22T00:01:50.157Z,30.00
2023-03-22T00:05:59.612Z,25.50
2023-03-22T00:10:05.261Z,26.50
2023-03-22T00:14:10.540Z,25.20
2023-03-22T00:18:16.273Z,27.50
2023-03-22T00:22:22.023Z,25.00
2023-03-22T00:26:27.373Z,25.00
2023-03-22T00:30:32.632Z,21.00
2023-03-22T00:34:37.998Z,19.70
2023-03-22T00:38:44.431Z,24.20
2023-03-22T00:42:50.327Z,19.90
2023-03-22T00:46:55.745Z,27.70
2023-03-22T00:51:01.159Z,22.30
2023-03-22T00:55:07.224Z,25.50
2023-03-22T00:59:12.757Z,24.80
2023-03-22T01:03:18.342Z,22.70
2023-03-22T01:07:24.453Z,24.90
2023-03-22T01:11:29.928Z,28.60
2023-03-22T01:15:35.440Z,30.00
2023-03-22T01:19:40.836Z,27.90
2023-03-22T01:23:46.211Z,34.60
2023-03-22T01:27:51.643Z,32.50
2023-03-22T01:31:56.996Z,30.00
2023-03-22T01:36:02.397Z,32.10
2023-03-22T01:40:09.255Z,29.80
2023-03-22T01:44:15.997Z,36.50
2023-03-22T01:48:23.354Z,33.60
2023-03-22T01:52:28.988Z,32.80
2023-03-22T01:56:36.898Z,34.70
2023-03-22T02:00:42.246Z,38.40
2023-03-22T02:04:50.693Z,39.80
2023-03-22T02:08:58.606Z,33.00
2023-03-22T02:13:21.199Z,35.80
2023-03-22T02:17:30.807Z,38.30
2023-03-22T02:21:53.748Z,43.90
2023-03-22T02:26:22.062Z,35.50
2023-03-22T02:30:50.048Z,38.50
2023-03-22T02:35:17.792Z,33.90
2023-03-22T02:39:36.192Z,32.30
2023-03-22T02:43:47.689Z,43.60
2023-03-22T02:47:56.384Z,37.30
2023-03-22T02:52:03.615Z,34.30
2023-03-22T02:56:11.459Z,32.00
2023-03-22T03:00:19.298Z,36.80
2023-03-22T03:04:27.673Z,30.40
2023-03-22T03:08:33.556Z,31.40
2023-03-22T03:12:38.904Z,32.70
2023-03-22T03:16:44.438Z,30.50
2023-03-22T03:20:54.627Z,29.90
2023-03-22T03:25:01.922Z,33.40
2023-03-22T03:29:11.295Z,39.60
2023-03-22T03:33:19.184Z,31.00
2023-03-22T03:37:26.485Z,33.60
2023-03-22T03:41:32.447Z,31.80
2023-03-22T03:45:38.594Z,25.50
2023-03-22T03:49:43.968Z,34.20
2023-03-22T03:53:49.317Z,28.70
2023-03-22T03:57:54.669Z,34.20
2023-03-22T04:02:00.570Z,34.00
2023-03-22T04:06:06.553Z,29.40
2023-03-22T04:10:12.474Z,28.90
2023-03-22T04:14:17.817Z,29.40
2023-03-22T04:18:23.173Z,32.20
2023-03-22T04:22:28.523Z,29.70
2023-03-22T04:26:34.076Z,29.90
2023-03-22T04:30:39.749Z,28.60
2023-03-22T04:34:45.410Z,28.60
2023-03-22T04:38:51.379Z,32.60
2023-03-22T04:42:57.691Z,31.20
2023-03-22T04:47:02.963Z,33.50
2023-03-22T04:51:09.260Z,30.10
2023-03-22T04:55:14.621Z,32.20
2023-03-22T04:59:20.517Z,28.80
2023-03-22T05:03:25.941Z,26.80
2023-03-22T05:07:31.149Z,29.00
2023-03-22T05:11:36.740Z,32.00
2023-03-22T05:15:42.996Z,24.30
2023-03-22T05:19:48.570Z,25.90
2023-03-22T05:23:54.190Z,27.80
2023-03-22T05:28:01.969Z,27.90
2023-03-22T05:32:07.532Z,26.70
2023-03-22T05:36:13.473Z,28.60
2023-03-22T05:40:18.866Z,20.60
2023-03-22T05:44:24.289Z,25.80
2023-03-22T05:48:29.578Z,24.60
2023-03-22T05:52:34.903Z,26.20
2023-03-22T05:56:40.999Z,27.50
2023-03-22T06:00:46.726Z,17.40
2023-03-22T06:04:52.838Z,21.40
2023-03-22T06:13:15.894Z,21.80
2023-03-22T06:17:21.309Z,17.20
2023-03-22T06:21:26.665Z,16.20
2023-03-22T06:25:32.047Z,15.80
2023-03-22T06:29:37.669Z,15.50
2023-03-22T06:33:42.903Z,17.50
2023-03-22T06:37:48.171Z,18.30
2023-03-22T06:41:53.627Z,11.10
2023-03-22T06:45:59.038Z,17.20
2023-03-22T06:50:04.685Z,17.60
2023-03-22T06:54:10.084Z,14.70
2023-03-22T06:58:15.439Z,17.20
2023-03-22T07:02:20.791Z,15.20
2023-03-22T07:06:26.353Z,15.30
2023-03-22T07:10:31.947Z,10.50
2023-03-22T07:14:37.382Z,13.30
2023-03-22T07:18:42.704Z,15.70
2023-03-22T07:22:48.160Z,14.10
2023-03-22T07:26:53.509Z,13.40
2023-03-22T07:31:05.220Z,12.60
2023-03-22T07:35:11.112Z,11.90
2023-03-22T07:39:16.383Z,11.00
2023-03-22T07:43:22.085Z,14.90
2023-03-22T07:47:40.073Z,11.60
2023-03-22T07:51:46.573Z,15.00
2023-03-22T07:55:51.823Z,12.40
2023-03-22T07:59:57.796Z,13.40
2023-03-22T08:04:03.136Z,10.20
2023-03-22T08:08:09.513Z,12.10
2023-03-22T08:12:14.983Z,10.00
2023-03-22T08:16:20.333Z,9.50
2023-03-22T08:24:33.164Z,11.60
2023-03-22T08:28:38.724Z,11.60
2023-03-22T08:32:44.628Z,11.70
2023-03-22T08:36:49.873Z,10.40
2023-03-22T08:44:58.866Z,12.40
2023-03-22T08:49:04.662Z,12.30
2023-03-22T08:53:11.351Z,13.50
2023-03-22T08:57:16.653Z,12.20
2023-03-22T09:01:22.123Z,13.10
2023-03-22T09:05:27.664Z,13.60
2023-03-22T09:09:33.015Z,12.10
2023-03-22T09:13:38.570Z,10.50
2023-03-22T09:17:43.919Z,15.40
2023-03-22T09:21:50.194Z,13.60
2023-03-22T09:25:55.562Z,11.90
2023-03-22T09:30:01.403Z,14.80
2023-03-22T09:34:06.944Z,12.00
2023-03-22T09:38:12.555Z,14.40
2023-03-22T09:42:29.378Z,13.60
2023-03-22T09:46:37.404Z,11.90
2023-03-22T09:50:45.607Z,14.50
2023-03-22T09:54:52.849Z,14.60
2023-03-22T09:59:01.981Z,14.30
2023-03-22T10:03:13.018Z,12.20
2023-03-22T10:07:23.307Z,13.60
2023-03-22T10:11:34.532Z,12.10
2023-03-22T10:15:42.284Z,11.30
2023-03-22T10:19:51.640Z,10.80
2023-03-22T10:23:58.837Z,11.00
2023-03-22T10:28:11.549Z,9.50
2023-03-22T10:32:18.844Z,10.70
2023-03-22T10:36:26.043Z,13.50
2023-03-22T10:40:32.623Z,9.00
2023-03-22T10:44:40.427Z,10.70
2023-03-22T10:48:47.215Z,10.60
2023-03-22T10:52:56.782Z,9.20
2023-03-22T10:57:02.121Z,13.00
2023-03-22T11:01:09.481Z,11.10
2023-03-22T11:05:23.089Z,11.30
2023-03-22T11:09:28.510Z,12.20
2023-03-22T11:13:34.781Z,13.20
2023-03-22T11:17:41.810Z,11.60
2023-03-22T11:21:48.178Z,13.60
2023-03-22T11:25:56.589Z,10.90
2023-03-22T11:30:10.218Z,12.60
2023-03-22T11:34:18.633Z,13.70
2023-03-22T11:38:29.621Z,12.40
2023-03-22T11:42:37.052Z,11.90
2023-03-22T11:46:49.505Z,12.60
2023-03-22T11:50:56.322Z,11.00
2023-03-22T11:55:02.502Z,11.80
2023-03-22T11:59:08.606Z,9.60
2023-03-22T12:03:17.117Z,11.30
2023-03-22T12:07:24.710Z,12.00
2023-03-22T12:11:33.212Z,10.60
2023-03-22T12:15:41.746Z,12.90
2023-03-22T12:19:58.766Z,13.60
2023-03-22T12:24:04.628Z,12.40
2023-03-22T12:28:13.288Z,12.80
2023-03-22T12:32:19.839Z,11.90
2023-03-22T12:36:30.670Z,11.70
2023-03-22T12:44:41.339Z,12.70
2023-03-22T12:48:49.802Z,10.30
2023-03-22T12:52:57.017Z,10.70
2023-03-22T12:57:02.801Z,11.00
2023-03-22T13:01:17.630Z,11.60
2023-03-22T13:05:28.254Z,10.00
2023-03-22T13:09:41.582Z,11.20
2023-03-22T13:13:48.163Z,9.60
2023-03-22T13:17:53.543Z,9.50
2023-03-22T13:22:15.462Z,9.70
2023-03-22T13:26:21.213Z,9.30
2023-03-22T13:30:28.001Z,11.90
2023-03-22T13:34:37.609Z,10.40
2023-03-22T13:38:43.760Z,9.60
2023-03-22T13:42:49.110Z,11.10
2023-03-22T13:46:54.981Z,9.50
2023-03-22T13:51:09.355Z,10.00
2023-03-22T13:55:37.271Z,10.20
2023-03-22T14:00:08.869Z,9.90
2023-03-22T14:04:22.622Z,11.50
2023-03-22T14:08:30.049Z,9.50
2023-03-22T14:12:46.036Z,9.40
2023-03-22T14:16:52.923Z,8.30
2023-03-22T14:20:59.304Z,9.10
